Time;durP1;ratioP1;P1;durP2;ratioP2;P2;SDS_P1;SDS_P2;PMS_P1;PMS_P2;Temp;Humidity;BMP_temperature;BMP_pressure;BME280_temperature;BME280_humidity;BME280_pressure;Samples;Min_cycle;Max_cycle;Signal;HPM_P1;HPM_P2
2021/09/17 00:00:59;;;;;;;3.10;2.80;;;8.40;99.90;;;;;;5028894;28;20030;-70
2021/09/17 00:03:25;;;;;;;4.68;3.08;;;8.40;99.90;;;;;;5028620;28;20105;-69
2021/09/17 00:05:51;;;;;;;3.40;3.08;;;8.30;99.90;;;;;;5027707;28;20029;-69
2021/09/17 00:08:17;;;;;;;3.53;2.85;;;8.30;99.90;;;;;;5028823;28;20029;-69
2021/09/17 00:10:43;;;;;;;3.25;2.90;;;8.40;99.90;;;;;;5028709;28;20552;-73
2021/09/17 00:13:09;;;;;;;2.92;2.70;;;8.40;99.90;;;;;;5028710;28;20123;-72
2021/09/17 00:15:35;;;;;;;3.72;3.33;;;8.40;99.90;;;;;;5028731;28;20526;-72
2021/09/17 00:18:01;;;;;;;3.65;3.20;;;8.40;99.90;;;;;;5028629;28;20056;-72
2021/09/17 00:20:26;;;;;;;3.92;3.53;;;8.30;99.90;;;;;;5028555;28;20033;-72
2021/09/17 00:22:52;;;;;;;3.45;3.10;;;8.30;99.90;;;;;;5028865;28;20021;-72
2021/09/17 00:25:18;;;;;;;4.45;3.20;;;8.30;99.90;;;;;;5028607;28;20022;-72
2021/09/17 00:27:44;;;;;;;3.75;3.10;;;8.30;99.90;;;;;;5028425;28;20033;-72
2021/09/17 00:30:10;;;;;;;6.22;3.53;;;8.30;99.90;;;;;;5028618;28;20025;-72
2021/09/17 00:32:35;;;;;;;5.63;3.15;;;8.30;99.90;;;;;;5028694;28;20029;-72
2021/09/17 00:35:02;;;;;;;3.15;2.85;;;8.30;99.90;;;;;;5028372;28;20381;-72
2021/09/17 00:37:28;;;;;;;4.60;3.20;;;8.30;99.90;;;;;;5029089;28;20029;-72
2021/09/17 00:39:54;;;;;;;3.58;3.03;;;8.30;99.90;;;;;;5030945;28;20086;-72
2021/09/17 00:42:19;;;;;;;5.43;3.33;;;8.30;99.90;;;;;;5031806;28;20030;-72
2021/09/17 00:44:45;;;;;;;4.97;4.10;;;8.20;99.90;;;;;;5031595;28;20037;-72
2021/09/17 00:47:11;;;;;;;5.10;3.38;;;8.20;99.90;;;;;;5032182;28;20032;-73
2021/09/17 00:49:37;;;;;;;3.65;3.25;;;8.20;99.90;;;;;;5031739;28;20061;-73
2021/09/17 00:52:03;;;;;;;4.50;3.25;;;8.20;99.90;;;;;;5031444;28;20099;-73
2021/09/17 00:54:34;;;;;;;5.40;3.33;;;8.20;99.90;;;;;;5031649;28;20086;-73
2021/09/17 00:57:00;;;;;;;3.50;3.20;;;8.20;99.90;;;;;;5031980;28;20064;-73
2021/09/17 00:59:26;;;;;;;3.65;3.08;;;8.20;99.90;;;;;;5031546;28;20041;-73
2021/09/17 01:01:51;;;;;;;4.18;3.42;;;8.10;99.90;;;;;;5031512;28;20029;-73
2021/09/17 01:04:17;;;;;;;3.83;3.33;;;8.10;99.90;;;;;;5031526;28;20109;-73
2021/09/17 01:06:43;;;;;;;5.38;3.10;;;8.10;99.90;;;;;;5031276;28;20032;-72
2021/09/17 01:09:10;;;;;;;4.47;3.60;;;8.10;99.90;;;;;;5031504;28;20022;-73
2021/09/17 01:11:36;;;;;;;3.45;3.05;;;8.10;99.90;;;;;;5031534;28;20022;-73
2021/09/17 01:14:03;;;;;;;4.90;3.35;;;8.10;99.90;;;;;;5031598;28;20109;-71
2021/09/17 01:16:29;;;;;;;3.95;3.53;;;8.10;99.90;;;;;;5031163;28;20032;-71
2021/09/17 01:18:55;;;;;;;5.03;3.10;;;8.10;99.90;;;;;;5031380;28;20426;-71
2021/09/17 01:21:22;;;;;;;3.92;3.17;;;8.00;99.90;;;;;;5031172;28;20033;-71
2021/09/17 01:23:49;;;;;;;4.70;3.25;;;8.10;99.90;;;;;;5030906;28;20026;-71
2021/09/17 01:26:15;;;;;;;4.20;3.00;;;8.00;99.90;;;;;;5031064;28;20022;-71
2021/09/17 01:28:41;;;;;;;3.80;3.22;;;8.00;99.90;;;;;;5030942;28;20037;-71
2021/09/17 01:31:08;;;;;;;6.28;3.30;;;8.00;99.90;;;;;;5031236;28;20028;-71
2021/09/17 01:33:33;;;;;;;4.88;3.58;;;8.00;99.90;;;;;;5030952;28;20034;-71
2021/09/17 01:36:06;;;;;;;3.15;2.85;;;8.00;99.90;;;;;;5031037;28;20025;-71
2021/09/17 01:38:33;;;;;;;4.88;3.28;;;8.00;99.90;;;;;;5030715;28;20021;-72
2021/09/17 01:40:59;;;;;;;5.15;3.90;;;8.00;99.90;;;;;;5031325;28;20565;-72
2021/09/17 01:43:26;;;;;;;6.20;3.92;;;7.90;99.90;;;;;;5030795;28;20062;-71
2021/09/17 01:45:53;;;;;;;3.35;3.05;;;7.90;99.90;;;;;;5030968;28;20030;-71
2021/09/17 01:48:19;;;;;;;4.22;3.72;;;7.90;99.90;;;;;;5030356;28;20022;-71
2021/09/17 01:50:45;;;;;;;3.63;3.25;;;8.00;99.90;;;;;;5030710;28;20038;-70
2021/09/17 01:53:11;;;;;;;3.47;3.17;;;8.00;99.90;;;;;;5031271;28;20041;-71
2021/09/17 01:55:37;;;;;;;3.65;3.20;;;7.90;99.90;;;;;;5030678;28;20033;-72
2021/09/17 01:58:03;;;;;;;5.57;3.42;;;7.90;99.90;;;;;;5030709;28;20481;-72
2021/09/17 02:00:29;;;;;;;5.20;3.17;;;7.90;99.90;;;;;;5030492;28;20484;-72
2021/09/17 02:02:55;;;;;;;4.75;3.65;;;7.90;99.90;;;;;;5030866;28;20026;-71
2021/09/17 02:05:21;;;;;;;7.25;3.58;;;7.90;99.90;;;;;;5030579;28;20025;-72
2021/09/17 02:07:47;;;;;;;5.35;4.07;;;7.90;99.90;;;;;;5030532;28;20116;-71
2021/09/17 02:10:14;;;;;;;3.92;3.40;;;7.90;99.90;;;;;;5030510;28;20070;-71
2021/09/17 02:12:40;;;;;;;4.47;3.50;;;7.90;99.90;;;;;;5030484;28;20070;-72
2021/09/17 02:15:09;;;;;;;5.63;3.70;;;7.90;99.90;;;;;;5030643;28;20065;-73
2021/09/17 02:17:35;;;;;;;4.32;3.60;;;7.90;99.90;;;;;;5030354;28;20033;-72
2021/09/17 02:20:00;;;;;;;5.15;3.60;;;7.90;99.90;;;;;;5030458;28;20078;-73
2021/09/17 02:22:27;;;;;;;5.20;3.50;;;7.90;99.90;;;;;;5030353;28;20045;-73
2021/09/17 02:53:58;;;;;;;3.67;3.38;;;7.60;99.90;;;;;;5029067;28;20129;-72
2021/09/17 02:56:24;;;;;;;4.53;3.70;;;7.50;99.90;;;;;;5029524;28;20416;-71
2021/09/17 02:58:50;;;;;;;4.32;3.67;;;7.50;99.90;;;;;;5029595;28;20027;-72
2021/09/17 03:01:16;;;;;;;7.95;4.10;;;7.50;99.90;;;;;;5028776;28;20025;-72
2021/09/17 03:03:42;;;;;;;9.73;3.75;;;7.60;99.90;;;;;;5029517;28;20022;-71
2021/09/17 03:06:07;;;;;;;4.20;3.80;;;7.60;99.90;;;;;;5029706;28;20060;-71
2021/09/17 03:08:33;;;;;;;3.35;3.00;;;7.60;99.90;;;;;;5029301;28;20481;-71
2021/09/17 03:10:59;;;;;;;4.38;3.72;;;7.60;99.90;;;;;;5029501;28;20468;-71
2021/09/17 03:13:26;;;;;;;5.30;4.25;;;7.60;99.90;;;;;;5029419;28;20022;-71
2021/09/17 03:15:53;;;;;;;4.13;3.33;;;7.70;99.90;;;;;;5029546;28;20104;-70
2021/09/17 03:18:19;;;;;;;4.22;3.83;;;7.70;99.90;;;;;;5029457;28;20029;-70
2021/09/17 03:20:47;;;;;;;3.85;3.25;;;7.70;99.90;;;;;;5029366;28;20037;-71
2021/09/17 03:23:13;;;;;;;4.35;3.55;;;7.60;99.90;;;;;;5029411;28;20097;-71
2021/09/17 03:25:39;;;;;;;3.10;2.80;;;7.60;99.90;;;;;;5029285;28;20536;-71
2021/09/17 03:28:05;;;;;;;4.60;3.88;;;7.60;99.90;;;;;;5029197;28;20029;-71
2021/09/17 03:30:31;;;;;;;3.80;3.33;;;7.70;99.90;;;;;;5029215;28;20037;-71
2021/09/17 03:32:57;;;;;;;4.53;3.40;;;7.70;99.90;;;;;;5029346;28;20381;-71
2021/09/17 03:35:23;;;;;;;6.50;3.60;;;7.70;99.90;;;;;;5029073;28;20117;-71
2021/09/17 03:37:48;;;;;;;4.88;3.67;;;7.70;99.90;;;;;;5029483;28;20018;-71
2021/09/17 03:40:14;;;;;;;4.00;3.42;;;7.70;99.90;;;;;;5029255;28;20029;-71
2021/09/17 03:42:40;;;;;;;4.20;3.53;;;7.70;99.90;;;;;;5029236;28;20026;-71
2021/09/17 03:45:06;;;;;;;4.70;3.55;;;7.70;99.90;;;;;;5029366;28;20025;-71
2021/09/17 03:47:32;;;;;;;3.83;3.45;;;7.70;99.90;;;;;;5029269;28;20022;-70
2021/09/17 03:49:58;;;;;;;5.82;3.50;;;7.70;99.90;;;;;;5029175;28;20029;-70
2021/09/17 03:52:23;;;;;;;3.88;3.47;;;7.70;99.90;;;;;;5029044;28;20037;-70
2021/09/17 03:54:49;;;;;;;4.18;3.35;;;7.70;99.90;;;;;;5028910;28;20045;-70
2021/09/17 03:57:15;;;;;;;6.30;3.95;;;7.70;99.90;;;;;;5029154;28;20025;-70
2021/09/17 03:59:41;;;;;;;5.00;3.58;;;7.70;99.90;;;;;;5028771;28;20153;-70
2021/09/17 04:02:07;;;;;;;8.75;3.70;;;7.70;99.90;;;;;;5029168;28;20026;-70
2021/09/17 04:04:32;;;;;;;4.25;3.55;;;7.70;99.90;;;;;;5028686;28;20534;-70
2021/09/17 04:06:58;;;;;;;4.60;3.50;;;7.60;99.90;;;;;;5029049;28;20049;-70
2021/09/17 04:09:24;;;;;;;5.07;3.53;;;7.60;99.90;;;;;;5028685;28;20029;-70
2021/09/17 04:11:50;;;;;;;6.20;3.28;;;7.60;99.90;;;;;;5030400;28;20018;-70
2021/09/17 04:14:16;;;;;;;4.10;3.63;;;7.60;99.90;;;;;;5032227;28;20081;-70
2021/09/17 04:16:42;;;;;;;3.97;3.47;;;7.60;99.90;;;;;;5032460;28;20026;-70
2021/09/17 04:19:07;;;;;;;3.97;3.35;;;7.70;99.90;;;;;;5032153;28;20078;-70
2021/09/17 04:21:33;;;;;;;4.25;3.13;;;7.60;99.90;;;;;;5032328;28;20034;-70
2021/09/17 04:23:59;;;;;;;4.00;3.15;;;7.60;99.90;;;;;;5030789;28;20026;-70
2021/09/17 04:26:25;;;;;;;4.88;3.38;;;7.60;99.90;;;;;;5031984;28;20032;-70
2021/09/17 04:28:51;;;;;;;4.20;3.50;;;7.60;99.90;;;;;;5032191;28;20034;-72
2021/09/17 04:31:17;;;;;;;3.92;3.35;;;7.60;99.90;;;;;;5032040;28;20026;-70
2021/09/17 04:33:43;;;;;;;5.25;3.53;;;7.60;99.90;;;;;;5031792;28;20025;-69
2021/09/17 04:36:09;;;;;;;6.30;3.05;;;7.60;99.90;;;;;;5031845;28;20469;-70
2021/09/17 04:38:34;;;;;;;5.30;3.35;;;7.60;99.90;;;;;;5031655;28;20037;-68
2021/09/17 04:41:00;;;;;;;4.78;3.00;;;7.60;99.90;;;;;;5031908;28;20036;-68
2021/09/17 04:43:29;;;;;;;4.00;3.30;;;7.60;99.90;;;;;;5031531;28;20022;-76
2021/09/17 04:45:55;;;;;;;6.60;3.67;;;7.70;99.90;;;;;;5031692;28;20029;-73
2021/09/17 04:48:20;;;;;;;4.55;3.55;;;8.00;99.90;;;;;;5031560;28;20036;-74
2021/09/17 04:50:46;;;;;;;5.85;3.35;;;8.10;99.90;;;;;;5029523;28;20428;-74
2021/09/17 04:53:12;;;;;;;3.78;2.67;;;8.70;99.90;;;;;;5031479;28;20030;-75
2021/09/17 04:55:38;;;;;;;9.60;3.30;;;9.50;99.90;;;;;;5030605;28;20496;-74
2021/09/17 04:58:06;;;;;;;6.07;3.20;;;10.00;99.90;;;;;;5029184;28;20488;-76
2021/09/17 05:00:32;;;;;;;3.50;2.72;;;10.30;99.90;;;;;;5031033;28;20041;-69
2021/09/17 05:02:58;;;;;;;3.83;2.90;;;10.90;99.90;;;;;;5030874;28;20040;-71
2021/09/17 05:05:25;;;;;;;2.60;2.28;;;11.30;99.90;;;;;;5029400;28;20469;-71
2021/09/17 05:07:50;;;;;;;4.53;2.38;;;11.50;99.90;;;;;;5030516;28;20022;-71
2021/09/17 05:10:16;;;;;;;4.45;2.63;;;11.50;99.90;;;;;;5030910;28;20507;-71
2021/09/17 05:12:42;;;;;;;2.08;1.90;;;11.50;99.90;;;;;;5031657;28;20488;-71
2021/09/17 05:15:08;;;;;;;2.47;2.05;;;11.40;99.90;;;;;;5030811;28;20021;-71
2021/09/17 05:17:34;;;;;;;7.65;2.28;;;11.50;99.90;;;;;;5030770;28;20029;-71
2021/09/17 05:20:00;;;;;;;2.42;2.15;;;11.50;99.90;;;;;;5030396;28;20438;-71
2021/09/17 05:22:26;;;;;;;2.22;1.67;;;11.50;99.90;;;;;;5030329;28;20132;-71
2021/09/17 05:24:53;;;;;;;5.03;1.90;;;11.60;99.90;;;;;;5030146;28;20064;-71
2021/09/17 05:27:19;;;;;;;3.67;1.92;;;11.70;99.90;;;;;;5031083;28;20025;-72
2021/09/17 05:29:45;;;;;;;2.85;2.10;;;11.80;99.90;;;;;;5030376;28;20044;-72
2021/09/17 05:32:11;;;;;;;2.15;2.00;;;11.70;99.90;;;;;;5030732;28;20033;-72
2021/09/17 05:34:37;;;;;;;4.22;2.03;;;11.60;99.90;;;;;;5030536;28;20036;-78
2021/09/17 05:37:04;;;;;;;3.00;2.20;;;11.50;99.90;;;;;;5030943;28;20506;-72
2021/09/17 05:39:30;;;;;;;3.35;2.10;;;11.60;99.90;;;;;;5030999;28;20060;-74
2021/09/17 05:41:55;;;;;;;1.98;1.83;;;11.60;99.90;;;;;;5031053;28;20061;-75
2021/09/17 05:44:21;;;;;;;2.20;2.00;;;11.60;99.90;;;;;;5029973;28;20029;-74
2021/09/17 05:46:47;;;;;;;2.58;2.15;;;11.60;99.90;;;;;;5030701;28;20091;-74
2021/09/17 05:49:13;;;;;;;2.13;1.90;;;11.50;99.90;;;;;;5031092;28;20376;-74
2021/09/17 05:51:38;;;;;;;2.55;2.13;;;11.50;99.90;;;;;;5030655;28;20026;-74
2021/09/17 05:54:04;;;;;;;2.30;2.10;;;11.40;99.90;;;;;;5030727;28;20589;-74
2021/09/17 05:56:30;;;;;;;6.68;2.17;;;11.30;99.90;;;;;;5030926;28;20029;-71
2021/09/17 05:58:56;;;;;;;2.70;1.92;;;11.30;99.90;;;;;;5030581;28;20052;-73
2021/09/17 06:01:22;;;;;;;2.53;2.33;;;11.40;99.90;;;;;;5030757;28;20068;-73
2021/09/17 06:03:48;;;;;;;2.33;2.13;;;11.50;99.90;;;;;;5030655;28;20029;-73
2021/09/17 06:06:16;;;;;;;2.30;2.03;;;11.30;99.90;;;;;;5030393;28;20033;-73
2021/09/17 06:08:41;;;;;;;2.53;2.00;;;11.30;99.90;;;;;;5030281;28;20489;-73
2021/09/17 06:11:07;;;;;;;2.78;2.22;;;11.30;99.90;;;;;;5030405;28;20032;-78
2021/09/17 06:13:33;;;;;;;2.20;1.73;;;11.10;99.90;;;;;;5023857;28;20057;-70
2021/09/17 06:15:59;;;;;;;2.63;2.10;;;11.20;99.90;;;;;;5029749;28;20108;-70
2021/09/17 06:18:24;;;;;;;2.05;1.85;;;11.10;99.90;;;;;;5029694;28;20473;-70
2021/09/17 06:20:50;;;;;;;2.13;1.92;;;11.00;99.90;;;;;;5029618;28;20068;-70
2021/09/17 06:23:16;;;;;;;2.63;2.15;;;11.10;99.90;;;;;;5029626;28;20025;-67
2021/09/17 06:25:41;;;;;;;2.33;2.00;;;11.10;99.90;;;;;;5030040;28;20040;-67
2021/09/17 06:28:08;;;;;;;2.78;2.15;;;10.80;99.90;;;;;;5029989;28;20366;-69
2021/09/17 06:30:34;;;;;;;2.20;2.00;;;10.40;99.90;;;;;;5026912;28;20070;-67
2021/09/17 06:33:00;;;;;;;4.57;2.42;;;10.20;99.90;;;;;;5029253;28;20545;-68
2021/09/17 06:35:26;;;;;;;2.70;2.10;;;9.90;99.90;;;;;;5029771;28;20032;-69
2021/09/17 06:37:54;;;;;;;6.55;2.20;;;9.80;99.90;;;;;;5029884;28;20074;-69
2021/09/17 06:40:22;;;;;;;2.85;2.47;;;9.70;99.90;;;;;;5029859;28;20082;-70
2021/09/17 06:42:49;;;;;;;3.97;2.38;;;9.60;99.90;;;;;;5029814;28;20017;-70
2021/09/17 06:45:15;;;;;;;4.10;2.60;;;9.60;99.90;;;;;;5029762;28;20029;-69
2021/09/17 06:47:45;;;;;;;6.32;2.42;;;9.50;99.90;;;;;;5029829;28;20089;-70
2021/09/17 06:50:11;;;;;;;3.60;2.50;;;9.50;99.90;;;;;;5029614;28;20029;-69
2021/09/17 06:52:37;;;;;;;2.97;2.67;;;9.40;99.90;;;;;;5029561;28;20028;-69
2021/09/17 06:55:04;;;;;;;5.78;3.00;;;9.40;99.90;;;;;;5027799;28;20046;-68
2021/09/17 06:57:29;;;;;;;4.53;3.17;;;9.30;99.90;;;;;;5028860;28;20025;-69
2021/09/17 06:59:55;;;;;;;4.57;2.88;;;9.30;99.90;;;;;;5027234;28;20034;-69
2021/09/17 07:02:21;;;;;;;6.32;2.95;;;9.20;99.90;;;;;;5029231;28;20146;-70
2021/09/17 07:04:46;;;;;;;12.27;2.92;;;9.00;99.90;;;;;;5026200;28;20047;-67
2021/09/17 07:07:12;;;;;;;3.00;2.65;;;9.00;99.90;;;;;;5028993;28;20040;-65
2021/09/17 07:09:38;;;;;;;4.78;2.85;;;8.90;99.90;;;;;;5029042;28;20130;-66
2021/09/17 07:12:04;;;;;;;3.33;2.60;;;8.90;99.90;;;;;;5028914;28;20520;-66
2021/09/17 07:14:29;;;;;;;3.20;2.58;;;8.90;99.90;;;;;;5023499;28;20498;-67
2021/09/17 07:16:55;;;;;;;3.13;2.40;;;8.90;99.90;;;;;;5022703;28;20108;-67
2021/09/17 07:19:21;;;;;;;4.07;3.45;;;8.90;99.90;;;;;;5025667;28;20029;-66
2021/09/17 07:21:47;;;;;;;3.47;3.10;;;9.00;99.90;;;;;;5028943;28;20049;-66
2021/09/17 07:24:13;;;;;;;3.65;3.05;;;9.00;99.90;;;;;;5028384;28;20090;-67
2021/09/17 07:26:39;;;;;;;6.07;2.95;;;9.10;99.90;;;;;;5028016;28;20026;-67
2021/09/17 07:29:04;;;;;;;4.47;2.92;;;9.10;99.90;;;;;;5029146;28;20033;-66
2021/09/17 07:31:30;;;;;;;3.15;2.67;;;9.20;99.90;;;;;;5029145;28;20638;-67
2021/09/17 07:33:56;;;;;;;4.07;2.58;;;9.20;99.90;;;;;;5028853;28;20053;-67
2021/09/17 07:36:21;;;;;;;3.00;2.63;;;9.20;99.90;;;;;;5028732;28;20105;-67
2021/09/17 07:38:47;;;;;;;2.92;2.60;;;9.20;99.90;;;;;;5029011;28;20101;-67
2021/09/17 07:41:13;;;;;;;3.53;2.78;;;9.20;99.90;;;;;;5028845;28;20061;-67
2021/09/17 07:43:38;;;;;;;2.90;2.35;;;9.10;99.90;;;;;;5028733;28;20040;-67
2021/09/17 07:46:05;;;;;;;2.85;2.55;;;9.10;99.90;;;;;;5028479;28;20026;-69
2021/09/17 07:48:33;;;;;;;2.85;2.55;;;9.10;99.90;;;;;;5028961;28;20029;-70
2021/09/17 07:50:58;;;;;;;4.45;2.60;;;9.10;99.90;;;;;;5029040;28;20014;-73
2021/09/17 07:53:24;;;;;;;2.50;2.30;;;9.90;99.90;;;;;;5028988;28;20036;-71
2021/09/17 07:55:50;;;;;;;4.75;2.17;;;11.60;99.90;;;;;;5028867;28;20029;-71
2021/09/17 07:58:15;;;;;;;2.38;1.83;;;12.00;99.90;;;;;;5029363;28;20021;-71
2021/09/17 08:00:41;;;;;;;2.55;2.00;;;11.60;99.90;;;;;;5028771;28;20033;-71
2021/09/17 08:03:07;;;;;;;2.03;1.83;;;11.50;99.90;;;;;;5028897;28;20488;-72
2021/09/17 08:05:32;;;;;;;2.15;1.88;;;11.60;99.90;;;;;;5029102;28;20061;-71
2021/09/17 08:07:58;;;;;;;1.90;1.80;;;11.90;99.90;;;;;;5028846;28;20426;-71
2021/09/17 08:10:24;;;;;;;2.90;1.88;;;12.00;99.90;;;;;;5028801;28;20175;-72
2021/09/17 08:12:49;;;;;;;1.85;1.73;;;12.10;99.90;;;;;;5028501;28;20033;-71
2021/09/17 08:15:15;;;;;;;2.20;2.00;;;11.90;99.90;;;;;;5028822;28;20022;-71
2021/09/17 08:17:41;;;;;;;2.10;1.90;;;12.00;99.90;;;;;;5028539;28;20473;-71
2021/09/17 08:20:08;;;;;;;1.90;1.80;;;12.00;99.90;;;;;;5028359;28;20425;-72
2021/09/17 08:22:34;;;;;;;2.30;1.77;;;12.20;99.90;;;;;;5028529;28;20034;-71
2021/09/17 08:25:00;;;;;;;1.60;1.50;;;12.50;99.90;;;;;;5027998;28;20033;-72
2021/09/17 08:27:26;;;;;;;2.17;1.75;;;12.70;99.90;;;;;;5028172;28;20078;-72
2021/09/17 08:29:51;;;;;;;4.05;1.70;;;12.50;99.90;;;;;;5028243;28;20037;-71
2021/09/17 08:32:17;;;;;;;1.67;1.58;;;12.60;99.90;;;;;;5028424;28;20026;-72
2021/09/17 08:34:43;;;;;;;4.05;1.85;;;12.50;99.90;;;;;;5028334;28;20025;-71
2021/09/17 08:37:09;;;;;;;3.63;2.00;;;12.60;99.90;;;;;;5028445;28;20049;-67
2021/09/17 08:39:37;;;;;;;2.70;1.95;;;12.70;99.90;;;;;;5028390;28;20029;-69
2021/09/17 08:42:06;;;;;;;2.08;1.88;;;12.50;99.90;;;;;;5028464;28;20099;-69
2021/09/17 08:44:32;;;;;;;2.45;1.90;;;12.10;99.90;;;;;;5028570;28;20098;-68
2021/09/17 08:46:58;;;;;;;3.33;2.17;;;11.70;99.90;;;;;;5027900;28;20468;-68
2021/09/17 08:49:24;;;;;;;2.33;1.88;;;11.50;99.90;;;;;;5022894;28;20065;-68
2021/09/17 08:51:52;;;;;;;6.93;1.85;;;11.40;99.90;;;;;;5026031;28;20354;-68
2021/09/17 08:54:18;;;;;;;2.78;1.80;;;11.20;99.90;;;;;;5027956;28;20045;-68
2021/09/17 08:56:44;;;;;;;3.33;2.20;;;11.00;99.90;;;;;;5026584;28;20492;-68
2021/09/17 08:59:10;;;;;;;2.92;2.13;;;10.80;99.90;;;;;;5030230;28;20120;-67
2021/09/17 09:01:36;;;;;;;9.20;2.30;;;10.70;99.90;;;;;;5031102;28;20021;-66
2021/09/17 09:04:07;;;;;;;4.85;2.22;;;10.70;99.90;;;;;;5030206;28;20029;-68
2021/09/17 09:06:46;;;;;;;2.72;2.35;;;10.60;99.90;;;;;;5030991;28;20025;-69
2021/09/17 09:09:20;;;;;;;4.72;2.25;;;10.50;99.90;;;;;;5029094;28;20110;-69
2021/09/17 09:11:51;;;;;;;4.78;2.30;;;10.60;99.90;;;;;;5028177;28;20029;-68
2021/09/17 09:14:18;;;;;;;4.72;2.50;;;10.70;99.90;;;;;;5031492;28;20032;-68
2021/09/17 09:16:49;;;;;;;3.45;2.53;;;10.50;99.90;;;;;;5031400;28;20017;-68
2021/09/17 09:19:29;;;;;;;3.28;2.55;;;10.40;99.90;;;;;;5031379;28;20037;-68
2021/09/17 09:22:06;;;;;;;3.33;2.25;;;11.00;99.90;;;;;;5031666;28;20035;-68
2021/09/17 09:24:34;;;;;;;3.97;2.00;;;11.10;99.90;;;;;;5031299;28;20389;-68
2021/09/17 09:27:16;;;;;;;2.38;1.98;;;10.90;99.90;;;;;;5031475;28;20086;-66
2021/09/17 09:29:44;;;;;;;2.47;2.13;;;10.70;99.90;;;;;;5031086;28;20028;-66
2021/09/17 09:32:28;;;;;;;2.78;2.38;;;10.60;99.90;;;;;;5031071;28;20025;-66
2021/09/17 09:34:56;;;;;;;6.00;2.60;;;10.50;99.90;;;;;;5030860;28;20029;-67
2021/09/17 09:37:25;;;;;;;5.05;2.40;;;10.40;99.90;;;;;;5031103;28;20495;-67
2021/09/17 09:39:54;;;;;;;4.32;2.40;;;10.30;99.90;;;;;;5030744;28;20037;-66
2021/09/17 09:42:28;;;;;;;5.47;2.30;;;10.20;99.90;;;;;;5030959;28;20487;-66
2021/09/17 09:45:21;;;;;;;2.08;1.70;;;10.10;99.90;;;;;;5030792;28;20021;-67
2021/09/17 09:47:54;;;;;;;2.63;2.03;;;10.00;99.90;;;;;;5031008;28;20087;-67
2021/09/17 09:50:24;;;;;;;3.17;2.17;;;10.00;99.90;;;;;;5030758;28;20051;-66
2021/09/17 09:52:55;;;;;;;6.63;2.20;;;10.00;99.90;;;;;;5030606;28;20104;-66
2021/09/17 09:55:21;;;;;;;2.63;2.17;;;10.00;99.90;;;;;;5030497;28;20050;-66
2021/09/17 09:57:47;;;;;;;3.65;2.63;;;9.90;99.90;;;;;;5030510;28;20039;-66
2021/09/17 10:00:14;;;;;;;7.05;3.00;;;9.90;99.90;;;;;;5030502;28;20054;-66
2021/09/17 10:02:42;;;;;;;2.92;2.28;;;9.80;99.90;;;;;;5030534;28;20086;-66
2021/09/17 10:05:10;;;;;;;7.88;2.60;;;9.80;99.90;;;;;;5030515;28;20021;-66
2021/09/17 10:07:36;;;;;;;5.50;2.60;;;9.70;99.90;;;;;;5030747;28;20022;-67
2021/09/17 10:10:05;;;;;;;3.50;2.35;;;9.70;99.90;;;;;;5028767;28;20056;-69
2021/09/17 10:12:31;;;;;;;3.22;2.50;;;9.70;99.90;;;;;;5030786;28;20531;-69
2021/09/17 10:14:59;;;;;;;3.05;2.63;;;9.70;99.90;;;;;;5030150;28;20049;-66
2021/09/17 10:17:29;;;;;;;5.50;2.55;;;9.60;99.90;;;;;;5030509;28;20017;-68
2021/09/17 10:19:56;;;;;;;5.70;2.83;;;9.60;99.90;;;;;;5030202;28;20516;-68
2021/09/17 10:22:37;;;;;;;4.68;2.60;;;9.60;99.90;;;;;;5030340;28;20044;-66
2021/09/17 10:25:06;;;;;;;4.85;2.63;;;9.60;99.90;;;;;;5030217;28;20135;-68
2021/09/17 10:27:32;;;;;;;3.47;2.58;;;9.60;99.90;;;;;;5030252;28;20432;-66
2021/09/17 10:30:00;;;;;;;14.88;2.90;;;9.60;99.90;;;;;;5030331;28;20037;-66
2021/09/17 10:32:26;;;;;;;3.35;2.85;;;9.60;99.90;;;;;;5029998;28;20021;-68
2021/09/17 10:35:18;;;;;;;2.88;2.53;;;9.70;99.90;;;;;;5029832;28;20108;-66
2021/09/17 10:38:00;;;;;;;3.22;2.70;;;9.80;99.90;;;;;;5030075;28;20138;-67
2021/09/17 10:40:38;;;;;;;6.63;2.75;;;9.80;99.90;;;;;;5030122;28;20066;-67
2021/09/17 10:43:09;;;;;;;10.10;2.95;;;9.80;99.90;;;;;;5030137;28;20054;-67
2021/09/17 10:45:48;;;;;;;6.90;2.28;;;9.80;99.90;;;;;;5029916;28;20029;-67
2021/09/17 10:48:16;;;;;;;3.80;2.80;;;9.90;99.90;;;;;;5029930;28;20519;-67
2021/09/17 10:50:53;;;;;;;4.22;2.17;;;9.80;99.90;;;;;;5029810;28;20036;-66
2021/09/17 10:53:37;;;;;;;6.30;2.22;;;9.80;99.90;;;;;;5030001;28;20492;-68
2021/09/17 10:56:03;;;;;;;4.28;1.90;;;9.80;99.90;;;;;;5029851;28;20042;-68
2021/09/17 10:58:33;;;;;;;2.00;1.80;;;9.80;99.90;;;;;;5029603;28;20058;-68
2021/09/17 11:01:06;;;;;;;2.28;1.73;;;9.90;99.90;;;;;;5029536;28;20568;-67
2021/09/17 11:03:41;;;;;;;3.42;2.13;;;9.90;99.90;;;;;;5029755;28;20026;-67
2021/09/17 11:06:18;;;;;;;3.08;2.30;;;9.90;99.90;;;;;;5029931;28;20029;-68
2021/09/17 11:08:47;;;;;;;13.38;2.67;;;9.90;99.90;;;;;;5029728;28;20033;-67
2021/09/17 11:11:27;;;;;;;2.33;2.00;;;9.90;99.90;;;;;;5029659;28;20608;-67
2021/09/17 11:13:59;;;;;;;6.30;2.40;;;10.00;99.90;;;;;;5029216;28;20032;-68
2021/09/17 11:16:26;;;;;;;5.75;2.00;;;9.90;99.90;;;;;;5029736;28;20116;-68
2021/09/17 11:18:51;;;;;;;4.88;1.75;;;9.90;99.90;;;;;;5029314;28;20032;-68
2021/09/17 11:21:18;;;;;;;2.13;1.80;;;9.90;99.90;;;;;;5028552;28;20029;-67
2021/09/17 11:23:48;;;;;;;2.88;1.92;;;9.90;99.90;;;;;;5029532;28;20026;-67
2021/09/17 11:26:42;;;;;;;2.72;1.65;;;9.90;99.90;;;;;;5029412;28;20036;-67
2021/09/17 11:29:13;;;;;;;2.20;1.65;;;9.90;99.40;;;;;;5029520;28;20098;-68
2021/09/17 11:31:47;;;;;;;3.00;1.60;;;9.80;99.60;;;;;;5029385;28;20028;-68
2021/09/17 11:34:14;;;;;;;2.60;1.65;;;9.90;99.60;;;;;;5029168;28;20106;-67
2021/09/17 11:36:53;;;;;;;3.20;1.80;;;9.90;99.80;;;;;;5029254;28;20045;-67
2021/09/17 11:39:24;;;;;;;30.20;2.53;;;9.90;99.60;;;;;;5029051;28;20074;-67
2021/09/17 11:41:59;;;;;;;3.72;1.80;;;9.80;99.10;;;;;;5029056;28;20481;-68
2021/09/17 11:44:36;;;;;;;2.92;1.60;;;9.90;98.70;;;;;;5029088;28;20100;-68
2021/09/17 11:47:10;;;;;;;2.13;1.63;;;9.90;97.70;;;;;;5029206;28;20021;-68
2021/09/17 11:49:45;;;;;;;4.15;1.80;;;9.90;98.50;;;;;;5029026;28;20026;-68
2021/09/17 11:52:18;;;;;;;2.95;2.08;;;9.90;97.60;;;;;;5029108;28;20046;-67
2021/09/17 11:55:06;;;;;;;4.18;1.75;;;10.00;97.90;;;;;;5028626;28;20078;-67
2021/09/17 11:57:40;;;;;;;2.88;2.00;;;10.00;96.80;;;;;;5029118;28;20139;-67
2021/09/17 12:00:20;;;;;;;4.78;1.60;;;10.00;97.00;;;;;;5028795;28;20124;-67
2021/09/17 12:02:53;;;;;;;2.60;1.85;;;10.00;97.00;;;;;;5028913;28;20022;-67
2021/09/17 12:05:23;;;;;;;2.67;1.90;;;10.10;95.70;;;;;;5028907;28;20033;-67
2021/09/17 12:07:50;;;;;;;4.47;1.60;;;10.00;95.70;;;;;;5029107;28;20169;-67
2021/09/17 12:10:25;;;;;;;7.90;1.80;;;10.00;95.10;;;;;;5027750;28;20033;-67
2021/09/17 12:12:50;;;;;;;2.17;1.50;;;10.00;95.10;;;;;;5028815;28;20033;-68
2021/09/17 12:15:43;;;;;;;2.45;1.67;;;10.00;95.20;;;;;;5029004;28;20520;-67
2021/09/17 12:18:22;;;;;;;2.35;1.60;;;10.00;94.90;;;;;;5028814;28;20017;-67
2021/09/17 12:20:54;;;;;;;4.70;1.58;;;10.00;94.60;;;;;;5027288;28;20392;-67
2021/09/17 12:23:22;;;;;;;2.30;1.95;;;10.00;95.40;;;;;;5028745;28;20499;-68
2021/09/17 12:25:50;;;;;;;3.65;2.03;;;10.00;95.90;;;;;;5028680;28;20052;-67
2021/09/17 12:28:21;;;;;;;2.75;2.00;;;10.10;96.10;;;;;;5028888;28;20146;-67
2021/09/17 12:30:48;;;;;;;2.40;1.75;;;10.10;95.90;;;;;;5028469;28;20059;-68
2021/09/17 12:33:19;;;;;;;4.07;2.20;;;10.00;96.00;;;;;;5030910;28;20034;-67
2021/09/17 12:35:47;;;;;;;1.83;1.50;;;10.00;96.40;;;;;;5031884;28;20515;-67
2021/09/17 12:38:16;;;;;;;4.00;1.70;;;10.00;96.60;;;;;;5032029;28;20023;-67
2021/09/17 12:40:48;;;;;;;3.10;1.90;;;10.00;97.00;;;;;;5032144;28;20124;-68
2021/09/17 12:43:22;;;;;;;2.35;1.85;;;9.90;96.50;;;;;;5031949;28;20022;-67
2021/09/17 12:46:07;;;;;;;8.85;1.85;;;9.90;97.10;;;;;;5031644;28;20040;-67
2021/09/17 12:48:35;;;;;;;1.95;1.73;;;9.90;97.40;;;;;;5031913;28;20537;-67
2021/09/17 12:51:02;;;;;;;2.17;1.67;;;9.90;97.40;;;;;;5031578;28;20075;-67
2021/09/17 12:53:40;;;;;;;2.72;1.80;;;9.80;96.30;;;;;;5031497;28;20488;-67
2021/09/17 12:56:08;;;;;;;2.17;1.63;;;9.80;96.00;;;;;;5031878;28;20108;-67
2021/09/17 12:58:35;;;;;;;2.08;1.88;;;9.70;96.10;;;;;;5031988;28;20482;-67
2021/09/17 13:01:03;;;;;;;6.63;1.90;;;9.70;95.90;;;;;;5031270;28;20098;-68
2021/09/17 13:03:28;;;;;;;2.55;2.00;;;9.70;96.50;;;;;;5031549;28;20032;-67
2021/09/17 13:05:57;;;;;;;2.83;1.60;;;9.90;95.90;;;;;;5031364;28;20029;-68
2021/09/17 13:08:24;;;;;;;3.80;1.70;;;9.90;95.40;;;;;;5031834;28;20021;-67
2021/09/17 13:10:51;;;;;;;5.30;1.70;;;9.90;95.90;;;;;;5031343;28;20154;-67
2021/09/17 13:13:18;;;;;;;2.78;1.60;;;10.00;96.10;;;;;;5031437;28;20477;-67
2021/09/17 13:15:44;;;;;;;2.63;1.77;;;10.00;95.80;;;;;;5031535;28;20049;-67
2021/09/17 13:18:11;;;;;;;3.17;1.60;;;9.90;95.20;;;;;;5031329;28;20025;-67
2021/09/17 13:20:38;;;;;;;2.92;1.67;;;9.90;95.20;;;;;;5031296;28;20044;-67
2021/09/17 13:23:05;;;;;;;1.85;1.40;;;9.90;95.40;;;;;;5031174;28;20541;-68
2021/09/17 13:25:32;;;;;;;3.80;1.60;;;9.90;95.40;;;;;;5031173;28;20029;-67